Time;durP1;ratioP1;P1;durP2;ratioP2;P2;SDS_P1;SDS_P2;PMS_P1;PMS_P2;Temp;Humidity;BMP_temperature;BMP_pressure;BME280_temperature;BME280_humidity;BME280_pressure;Samples;Min_cycle;Max_cycle;Signal;HPM_P1;HPM_P2
2020/12/08 00:02:59;;;;;;;21.33;11.50;;;;;;;;;;10560288;28;20218;-74
2020/12/08 00:08:04;;;;;;;21.43;12.03;;;;;;;;;;10556915;28;20263;-71
2020/12/08 00:13:05;;;;;;;17.50;9.93;;;;;;;;;;10558311;28;20211;-75
2020/12/08 00:18:08;;;;;;;21.93;11.93;;;;;;;;;;10566561;28;20199;-75
2020/12/08 00:23:10;;;;;;;20.40;11.53;;;;;;;;;;10558753;28;20222;-74
2020/12/08 00:28:11;;;;;;;19.97;11.30;;;;;;;;;;10557838;28;20195;-74
2020/12/08 00:33:14;;;;;;;20.83;11.30;;;;;;;;;;10548776;28;20300;-74
2020/12/08 00:38:15;;;;;;;21.13;10.07;;;;;;;;;;10552523;28;20565;-74
2020/12/08 00:43:17;;;;;;;21.83;11.20;;;;;;;;;;10556259;28;20206;-74
2020/12/08 00:48:19;;;;;;;21.07;11.27;;;;;;;;;;10555103;28;20270;-75
2020/12/08 00:53:20;;;;;;;20.73;11.27;;;;;;;;;;10558292;28;20203;-75
2020/12/08 01:16:31;;;;;;;26.23;13.40;;;;;;;;;;10535428;28;20183;-74
2020/12/08 01:21:33;;;;;;;22.77;12.57;;;;;;;;;;10552787;28;20512;-74
2020/12/08 01:26:34;;;;;;;22.70;12.07;;;;;;;;;;10563166;28;20198;-74
2020/12/08 01:31:40;;;;;;;24.13;13.17;;;;;;;;;;10545552;28;20333;-74
2020/12/08 01:36:41;;;;;;;24.87;12.60;;;;;;;;;;10562196;28;20232;-74
2020/12/08 01:41:43;;;;;;;22.20;11.73;;;;;;;;;;10555592;28;20629;-76
2020/12/08 01:46:45;;;;;;;23.73;12.20;;;;;;;;;;10546005;28;20403;-72
2020/12/08 01:51:47;;;;;;;24.27;13.27;;;;;;;;;;10550203;28;20216;-74
2020/12/08 01:56:48;;;;;;;24.47;12.97;;;;;;;;;;10554083;28;20211;-74
2020/12/08 02:01:51;;;;;;;25.33;13.67;;;;;;;;;;10558694;28;20315;-74
2020/12/08 02:06:52;;;;;;;25.27;13.30;;;;;;;;;;10551196;28;20210;-74
2020/12/08 02:11:54;;;;;;;31.20;15.53;;;;;;;;;;10557953;28;20289;-74
2020/12/08 02:16:56;;;;;;;30.47;14.97;;;;;;;;;;10544873;28;20519;-76
2020/12/08 02:21:59;;;;;;;27.27;14.30;;;;;;;;;;10557414;28;20226;-75
2020/12/08 02:27:00;;;;;;;29.07;13.47;;;;;;;;;;10544220;28;20203;-75
2020/12/08 02:32:02;;;;;;;22.10;11.07;;;;;;;;;;10545979;28;20240;-74
2020/12/08 02:37:04;;;;;;;26.13;12.23;;;;;;;;;;10548918;28;20206;-75
2020/12/08 02:42:05;;;;;;;25.70;12.00;;;;;;;;;;10549336;28;20225;-74
2020/12/08 02:47:07;;;;;;;23.00;10.60;;;;;;;;;;10548919;28;20552;-74
2020/12/08 02:52:09;;;;;;;26.57;12.60;;;;;;;;;;10547404;28;20223;-74
2020/12/08 02:57:11;;;;;;;31.37;13.87;;;;;;;;;;10558596;28;20225;-71
2020/12/08 03:02:12;;;;;;;37.93;15.30;;;;;;;;;;10557554;28;20228;-75
2020/12/08 03:07:15;;;;;;;25.37;12.27;;;;;;;;;;10556382;28;20200;-74
2020/12/08 03:12:16;;;;;;;24.13;11.13;;;;;;;;;;10549557;28;20218;-73
2020/12/08 03:17:17;;;;;;;26.27;11.87;;;;;;;;;;10561051;28;20302;-74
2020/12/08 03:22:20;;;;;;;26.80;12.70;;;;;;;;;;10557202;28;20235;-73
2020/12/08 03:27:21;;;;;;;26.43;12.40;;;;;;;;;;10554031;28;20202;-74
2020/12/08 03:32:23;;;;;;;23.43;11.77;;;;;;;;;;10557447;28;20720;-72
2020/12/08 03:37:25;;;;;;;64.57;14.13;;;;;;;;;;10557863;28;20206;-74
2020/12/08 03:42:26;;;;;;;27.07;12.27;;;;;;;;;;10552017;28;20686;-74
2020/12/08 03:47:28;;;;;;;28.33;12.30;;;;;;;;;;10561849;28;20500;-74
2020/12/08 03:52:31;;;;;;;29.50;11.23;;;;;;;;;;10548720;28;20264;-74
2020/12/08 03:57:33;;;;;;;22.93;10.23;;;;;;;;;;10553517;28;20310;-74
2020/12/08 04:02:35;;;;;;;18.70;9.60;;;;;;;;;;10558747;28;20222;-75
2020/12/08 04:07:37;;;;;;;29.37;9.90;;;;;;;;;;10549011;28;20599;-73
2020/12/08 04:12:39;;;;;;;21.63;7.70;;;;;;;;;;10564124;28;20518;-74
2020/12/08 04:17:41;;;;;;;20.53;9.63;;;;;;;;;;10552939;28;20558;-74
2020/12/08 04:22:43;;;;;;;54.07;9.50;;;;;;;;;;10557290;28;20223;-74
2020/12/08 04:27:44;;;;;;;21.60;9.80;;;;;;;;;;10556596;28;20204;-74
2020/12/08 04:32:46;;;;;;;17.83;8.47;;;;;;;;;;10565044;28;20219;-74
2020/12/08 04:37:48;;;;;;;22.33;9.83;;;;;;;;;;10560755;28;20195;-74
2020/12/08 04:42:53;;;;;;;19.37;9.50;;;;;;;;;;10564327;28;20215;-74
2020/12/08 04:48:02;;;;;;;16.20;8.23;;;;;;;;;;10561349;28;20199;-75
2020/12/08 04:53:04;;;;;;;17.77;8.30;;;;;;;;;;10549423;28;20269;-75
2020/12/08 04:58:06;;;;;;;18.87;7.80;;;;;;;;;;10558308;28;20226;-73
2020/12/08 05:03:07;;;;;;;18.50;9.73;;;;;;;;;;10549576;28;20305;-75
2020/12/08 05:08:11;;;;;;;19.37;10.03;;;;;;;;;;10561090;28;20202;-75
2020/12/08 05:13:15;;;;;;;23.60;11.13;;;;;;;;;;10543977;28;20210;-74
2020/12/08 05:18:17;;;;;;;19.67;9.90;;;;;;;;;;10552704;28;20201;-74
2020/12/08 05:23:19;;;;;;;17.67;9.17;;;;;;;;;;10557760;28;20215;-73
2020/12/08 05:28:21;;;;;;;19.03;9.30;;;;;;;;;;10559049;28;20662;-74
2020/12/08 05:33:23;;;;;;;21.77;10.03;;;;;;;;;;10564853;28;20199;-73
2020/12/08 05:38:28;;;;;;;14.17;7.30;;;;;;;;;;10553885;28;20309;-73
2020/12/08 05:43:34;;;;;;;11.27;4.27;;;;;;;;;;10555029;28;20586;-73
2020/12/08 05:48:36;;;;;;;17.03;6.43;;;;;;;;;;10559225;28;20773;-73
2020/12/08 05:53:41;;;;;;;15.00;7.13;;;;;;;;;;10555118;28;20240;-74
2020/12/08 05:58:42;;;;;;;15.33;7.57;;;;;;;;;;10544599;28;20733;-74
2020/12/08 06:03:52;;;;;;;13.47;6.87;;;;;;;;;;10539109;28;20223;-73
2020/12/08 06:08:55;;;;;;;14.30;7.33;;;;;;;;;;10546233;28;20223;-72
2020/12/08 06:13:57;;;;;;;13.97;6.70;;;;;;;;;;10552608;28;20191;-74
2020/12/08 06:18:59;;;;;;;14.37;7.43;;;;;;;;;;10548922;28;20218;-75
2020/12/08 06:24:01;;;;;;;12.50;6.73;;;;;;;;;;10548960;28;20568;-75
2020/12/08 06:29:06;;;;;;;13.23;6.83;;;;;;;;;;10553601;28;20227;-75
2020/12/08 06:34:08;;;;;;;12.23;6.60;;;;;;;;;;10560153;28;20674;-73
2020/12/08 06:39:12;;;;;;;13.47;7.00;;;;;;;;;;10562415;28;20222;-74
2020/12/08 06:44:15;;;;;;;13.17;6.27;;;;;;;;;;10569158;28;20589;-75
2020/12/08 06:49:17;;;;;;;12.27;7.03;;;;;;;;;;10558727;28;20231;-74
2020/12/08 06:54:19;;;;;;;14.30;6.97;;;;;;;;;;10550263;28;20206;-74
2020/12/08 06:59:21;;;;;;;15.27;7.30;;;;;;;;;;10569195;28;20591;-75
2020/12/08 07:04:23;;;;;;;14.27;7.70;;;;;;;;;;10562996;28;20195;-74
2020/12/08 07:09:30;;;;;;;14.60;7.43;;;;;;;;;;10561994;28;20234;-74
2020/12/08 07:14:36;;;;;;;15.10;6.80;;;;;;;;;;10567271;28;20199;-75
2020/12/08 07:19:38;;;;;;;12.30;6.37;;;;;;;;;;10559606;28;20226;-74
2020/12/08 07:24:44;;;;;;;12.57;6.73;;;;;;;;;;10550439;28;20310;-72
2020/12/08 07:29:45;;;;;;;12.83;6.87;;;;;;;;;;10547362;28;20242;-74
2020/12/08 07:34:49;;;;;;;15.20;7.43;;;;;;;;;;10557496;28;20693;-74
2020/12/08 07:39:52;;;;;;;12.93;6.63;;;;;;;;;;10559147;28;20237;-74
2020/12/08 07:44:55;;;;;;;12.13;6.83;;;;;;;;;;10557538;28;20200;-74
2020/12/08 07:49:57;;;;;;;12.47;7.13;;;;;;;;;;10553005;28;20652;-73
2020/12/08 07:54:59;;;;;;;14.57;7.60;;;;;;;;;;10546219;28;20713;-73
2020/12/08 08:00:01;;;;;;;17.63;7.87;;;;;;;;;;10554062;28;20226;-76
2020/12/08 08:05:02;;;;;;;16.93;8.60;;;;;;;;;;10550004;28;20582;-74
2020/12/08 08:10:05;;;;;;;15.27;8.63;;;;;;;;;;10558423;28;20649;-74
2020/12/08 08:15:07;;;;;;;15.13;7.87;;;;;;;;;;10560765;28;20206;-73
2020/12/08 08:20:08;;;;;;;14.60;7.97;;;;;;;;;;10557107;28;20295;-74
2020/12/08 08:25:10;;;;;;;15.37;8.27;;;;;;;;;;10560451;28;20651;-73
2020/12/08 08:30:12;;;;;;;16.90;9.07;;;;;;;;;;10560154;28;20217;-73
2020/12/08 08:35:14;;;;;;;16.93;9.00;;;;;;;;;;10559979;28;20199;-74
2020/12/08 08:40:16;;;;;;;14.63;8.20;;;;;;;;;;10552009;28;20237;-74
2020/12/08 08:45:17;;;;;;;15.80;8.60;;;;;;;;;;10557488;28;20381;-73
2020/12/08 08:50:19;;;;;;;18.87;10.83;;;;;;;;;;10552092;28;20256;-72
2020/12/08 08:55:21;;;;;;;13.77;7.63;;;;;;;;;;10553213;28;20214;-72
2020/12/08 09:00:23;;;;;;;16.07;8.87;;;;;;;;;;10549974;28;20314;-73
2020/12/08 09:05:25;;;;;;;16.23;9.10;;;;;;;;;;10563046;28;20223;-73
2020/12/08 09:10:27;;;;;;;16.67;8.40;;;;;;;;;;10560126;28;20247;-74
2020/12/08 09:15:29;;;;;;;13.17;8.00;;;;;;;;;;10555326;28;20589;-73
2020/12/08 09:20:31;;;;;;;15.33;8.13;;;;;;;;;;10558313;28;20219;-74
2020/12/08 09:25:33;;;;;;;14.30;7.73;;;;;;;;;;10552670;28;20213;-74
2020/12/08 09:30:35;;;;;;;13.87;7.60;;;;;;;;;;10556269;28;20214;-75
2020/12/08 09:35:36;;;;;;;12.93;7.67;;;;;;;;;;10550581;28;20210;-73
2020/12/08 09:40:41;;;;;;;12.50;7.23;;;;;;;;;;10557582;28;20229;-74
2020/12/08 09:45:42;;;;;;;13.50;7.57;;;;;;;;;;10560097;28;20222;-72
2020/12/08 09:50:44;;;;;;;21.07;10.57;;;;;;;;;;10560380;28;20227;-72
2020/12/08 09:55:48;;;;;;;13.03;7.37;;;;;;;;;;10552604;28;20577;-74
2020/12/08 10:00:50;;;;;;;12.93;6.87;;;;;;;;;;10551085;28;20689;-74
2020/12/08 10:05:52;;;;;;;13.67;7.70;;;;;;;;;;10550696;28;20715;-74
2020/12/08 10:10:54;;;;;;;12.30;6.87;;;;;;;;;;10538900;28;20396;-74
2020/12/08 10:15:56;;;;;;;14.87;7.03;;;;;;;;;;10554418;28;20663;-75
2020/12/08 10:20:58;;;;;;;18.57;6.90;;;;;;;;;;10544645;28;20222;-74
2020/12/08 10:26:00;;;;;;;14.77;7.00;;;;;;;;;;10561026;28;20903;-75
2020/12/08 10:31:02;;;;;;;17.33;9.17;;;;;;;;;;10549909;28;20215;-74
2020/12/08 10:36:03;;;;;;;12.53;6.93;;;;;;;;;;10546726;28;20278;-75
2020/12/08 10:41:06;;;;;;;14.00;6.80;;;;;;;;;;10550467;28;20219;-75
2020/12/08 10:46:07;;;;;;;11.17;6.37;;;;;;;;;;10554625;28;20250;-74
2020/12/08 10:51:09;;;;;;;12.53;6.20;;;;;;;;;;10551050;28;20778;-75
2020/12/08 10:56:16;;;;;;;11.60;6.40;;;;;;;;;;10545325;28;20612;-75
2020/12/08 11:01:18;;;;;;;12.17;6.20;;;;;;;;;;10553936;28;20226;-75
2020/12/08 11:06:20;;;;;;;13.03;5.90;;;;;;;;;;10542423;28;20198;-75
2020/12/08 11:11:22;;;;;;;13.50;5.80;;;;;;;;;;10540692;28;20227;-75
2020/12/08 11:16:25;;;;;;;12.63;5.50;;;;;;;;;;10547328;28;20191;-74
2020/12/08 11:21:27;;;;;;;12.63;6.70;;;;;;;;;;10538984;28;20326;-76
2020/12/08 11:26:31;;;;;;;12.13;6.87;;;;;;;;;;10553224;28;20618;-72
2020/12/08 11:31:33;;;;;;;12.23;6.30;;;;;;;;;;10549963;28;20276;-74
2020/12/08 11:36:35;;;;;;;12.90;6.07;;;;;;;;;;10554272;28;20195;-75
2020/12/08 11:41:41;;;;;;;14.27;6.60;;;;;;;;;;10550878;28;20601;-75
2020/12/08 11:46:43;;;;;;;13.33;6.87;;;;;;;;;;10557031;28;20205;-75
2020/12/08 11:51:44;;;;;;;10.80;5.93;;;;;;;;;;10564343;28;20306;-73
2020/12/08 11:56:47;;;;;;;13.30;5.90;;;;;;;;;;10553046;28;20310;-74
2020/12/08 12:01:49;;;;;;;11.77;6.80;;;;;;;;;;10562216;28;20318;-74
2020/12/08 12:06:51;;;;;;;11.93;5.90;;;;;;;;;;10557219;28;20199;-74
2020/12/08 12:11:54;;;;;;;12.43;5.60;;;;;;;;;;10563476;28;20582;-74
2020/12/08 12:16:58;;;;;;;13.97;6.03;;;;;;;;;;10548749;28;20290;-75
2020/12/08 12:22:00;;;;;;;12.47;5.60;;;;;;;;;;10557498;28;20661;-74
2020/12/08 12:27:04;;;;;;;10.47;6.07;;;;;;;;;;10550905;28;20627;-75
2020/12/08 12:32:06;;;;;;;11.83;6.87;;;;;;;;;;10562126;28;20233;-73
2020/12/08 12:37:08;;;;;;;12.10;7.00;;;;;;;;;;10547469;28;20202;-75
2020/12/08 12:42:11;;;;;;;15.13;7.00;;;;;;;;;;10555626;28;20222;-73
2020/12/08 12:47:12;;;;;;;12.63;7.30;;;;;;;;;;10559333;28;20658;-76
2020/12/08 12:52:16;;;;;;;17.73;8.13;;;;;;;;;;10547110;28;20219;-74
2020/12/08 12:57:18;;;;;;;14.30;8.13;;;;;;;;;;10540078;28;20226;-74
2020/12/08 13:02:20;;;;;;;14.67;7.83;;;;;;;;;;10569212;28;20634;-74
2020/12/08 13:07:21;;;;;;;15.97;7.87;;;;;;;;;;10551152;28;20214;-74
2020/12/08 13:12:24;;;;;;;15.93;8.60;;;;;;;;;;10554961;28;20298;-73
2020/12/08 13:17:25;;;;;;;15.93;7.73;;;;;;;;;;10554324;28;20191;-74
2020/12/08 13:22:27;;;;;;;14.67;7.90;;;;;;;;;;10558567;28;20227;-74
2020/12/08 13:27:31;;;;;;;14.70;7.97;;;;;;;;;;10551414;28;20199;-74
2020/12/08 13:32:34;;;;;;;15.60;8.00;;;;;;;;;;10549007;28;20245;-73
2020/12/08 13:37:35;;;;;;;15.17;7.70;;;;;;;;;;10554255;28;20223;-74
2020/12/08 13:42:38;;;;;;;16.53;7.73;;;;;;;;;;10559831;28;20226;-75
2020/12/08 13:47:39;;;;;;;12.97;7.47;;;;;;;;;;10559566;28;20515;-75
2020/12/08 13:52:41;;;;;;;15.23;7.73;;;;;;;;;;10555280;28;20294;-75
2020/12/08 13:57:44;;;;;;;14.87;7.40;;;;;;;;;;10545570;28;20211;-75
2020/12/08 14:02:45;;;;;;;12.83;7.37;;;;;;;;;;10557672;28;20233;-74
2020/12/08 14:07:47;;;;;;;13.73;7.27;;;;;;;;;;10549162;28;20199;-75
2020/12/08 14:12:50;;;;;;;14.93;7.80;;;;;;;;;;10555965;28;20309;-74
2020/12/08 14:17:52;;;;;;;14.27;7.30;;;;;;;;;;10552831;28;20204;-74
2020/12/08 14:22:54;;;;;;;15.97;7.67;;;;;;;;;;10562353;28;20249;-75
2020/12/08 14:27:57;;;;;;;14.50;7.47;;;;;;;;;;10546556;28;20225;-74
2020/12/08 14:32:59;;;;;;;13.73;7.20;;;;;;;;;;10557945;28;20310;-74
2020/12/08 14:38:00;;;;;;;15.27;7.17;;;;;;;;;;10538214;28;20666;-75
2020/12/08 14:43:03;;;;;;;12.57;6.70;;;;;;;;;;10554845;28;20226;-73
2020/12/08 14:48:04;;;;;;;15.67;7.97;;;;;;;;;;10542314;28;20208;-73
2020/12/08 14:53:06;;;;;;;12.00;6.30;;;;;;;;;;10549445;28;20225;-74
2020/12/08 14:58:09;;;;;;;12.70;6.40;;;;;;;;;;10556460;28;20215;-73
2020/12/08 15:03:11;;;;;;;14.67;7.10;;;;;;;;;;10563923;28;20215;-72
2020/12/08 15:08:12;;;;;;;11.83;5.90;;;;;;;;;;10557663;28;20241;-74
2020/12/08 15:13:15;;;;;;;12.83;5.70;;;;;;;;;;10558845;28;20623;-74
2020/12/08 15:18:17;;;;;;;12.27;6.10;;;;;;;;;;10557753;28;20654;-73
2020/12/08 15:23:19;;;;;;;11.13;5.80;;;;;;;;;;10550941;28;20292;-73
2020/12/08 15:28:21;;;;;;;12.87;6.00;;;;;;;;;;10554229;28;20203;-74
2020/12/08 15:33:23;;;;;;;10.53;5.50;;;;;;;;;;10561128;28;20739;-74
2020/12/08 15:38:24;;;;;;;15.07;6.40;;;;;;;;;;10560443;28;20229;-75
2020/12/08 15:43:27;;;;;;;12.50;6.10;;;;;;;;;;10563071;28;20212;-74
2020/12/08 15:48:29;;;;;;;10.93;5.70;;;;;;;;;;10556572;28;20234;-74
2020/12/08 15:53:31;;;;;;;12.57;6.77;;;;;;;;;;10560349;28;20745;-73
2020/12/08 15:58:33;;;;;;;11.10;5.73;;;;;;;;;;10551987;28;20535;-73
2020/12/08 16:03:35;;;;;;;12.03;6.37;;;;;;;;;;10552888;28;20227;-74
2020/12/08 16:08:37;;;;;;;12.30;5.67;;;;;;;;;;10559810;28;20590;-74
2020/12/08 16:13:39;;;;;;;10.63;5.57;;;;;;;;;;10562188;28;20207;-74
2020/12/08 16:18:41;;;;;;;11.97;5.50;;;;;;;;;;10559751;28;20238;-72
2020/12/08 16:23:44;;;;;;;11.07;5.67;;;;;;;;;;10556406;28;20227;-74
2020/12/08 16:28:47;;;;;;;9.67;5.20;;;;;;;;;;10566022;28;20229;-74
2020/12/08 16:33:48;;;;;;;11.17;5.23;;;;;;;;;;10555634;28;20196;-73
2020/12/08 16:38:50;;;;;;;13.17;6.83;;;;;;;;;;10562202;28;20734;-74
2020/12/08 16:43:53;;;;;;;17.30;8.87;;;;;;;;;;10553606;28;20307;-73
2020/12/08 16:48:54;;;;;;;17.20;6.30;;;;;;;;;;10558807;28;20223;-74
2020/12/08 16:53:56;;;;;;;20.07;10.47;;;;;;;;;;10557256;28;20198;-72
2020/12/08 16:58:58;;;;;;;16.30;7.40;;;;;;;;;;10552829;28;20219;-74
2020/12/08 17:04:00;;;;;;;13.47;5.53;;;;;;;;;;10561057;28;20689;-74
2020/12/08 17:09:01;;;;;;;12.43;5.77;;;;;;;;;;10555308;28;20230;-74
2020/12/08 17:14:04;;;;;;;18.87;8.77;;;;;;;;;;10554566;28;20267;-73
2020/12/08 17:19:06;;;;;;;15.03;7.20;;;;;;;;;;10551387;28;20346;-73
2020/12/08 17:24:07;;;;;;;15.73;8.43;;;;;;;;;;10546637;28;20214;-74
2020/12/08 17:29:11;;;;;;;11.50;5.67;;;;;;;;;;10550054;28;20223;-73
2020/12/08 17:34:13;;;;;;;11.00;5.50;;;;;;;;;;10547274;28;20205;-72
2020/12/08 17:39:15;;;;;;;18.20;7.90;;;;;;;;;;10557989;28;20716;-74
2020/12/08 17:44:17;;;;;;;9.27;4.50;;;;;;;;;;10545798;28;20210;-74
2020/12/08 17:49:19;;;;;;;10.00;5.50;;;;;;;;;;10553126;28;20214;-72
2020/12/08 17:54:20;;;;;;;9.87;5.13;;;;;;;;;;10549226;28;20884;-74
2020/12/08 17:59:23;;;;;;;11.23;5.43;;;;;;;;;;10557009;28;20778;-74
2020/12/08 18:04:24;;;;;;;10.57;5.00;;;;;;;;;;10555857;28;20276;-73
2020/12/08 18:09:27;;;;;;;10.63;5.87;;;;;;;;;;10542567;28;20220;-73
2020/12/08 18:14:30;;;;;;;11.83;6.20;;;;;;;;;;10547563;28;20605;-74
2020/12/08 18:19:31;;;;;;;9.00;4.57;;;;;;;;;;10550419;28;20306;-74
2020/12/08 18:24:34;;;;;;;10.80;5.03;;;;;;;;;;10552708;28;20302;-73
2020/12/08 18:29:36;;;;;;;11.33;5.57;;;;;;;;;;10545905;28;20237;-73
2020/12/08 18:34:39;;;;;;;13.03;5.40;;;;;;;;;;10548673;28;20191;-72
2020/12/08 18:39:40;;;;;;;11.90;6.20;;;;;;;;;;10567058;28;20233;-74
2020/12/08 18:44:43;;;;;;;14.47;6.93;;;;;;;;;;10560419;28;20219;-75
2020/12/08 18:49:45;;;;;;;13.37;6.80;;;;;;;;;;10539800;28;20223;-75
2020/12/08 18:54:46;;;;;;;13.73;7.07;;;;;;;;;;10566215;28;20313;-75
2020/12/08 18:59:49;;;;;;;14.70;7.50;;;;;;;;;;10553244;28;20222;-73
2020/12/08 19:04:50;;;;;;;14.10;8.13;;;;;;;;;;10543955;28;20223;-74
2020/12/08 19:09:52;;;;;;;15.10;8.70;;;;;;;;;;10558174;28;20594;-75
2020/12/08 19:14:56;;;;;;;16.97;8.60;;;;;;;;;;10560842;28;20203;-74
2020/12/08 19:19:58;;;;;;;16.93;8.37;;;;;;;;;;10562312;28;20315;-73
2020/12/08 19:24:59;;;;;;;15.10;8.53;;;;;;;;;;10568533;28;20226;-75
2020/12/08 19:30:03;;;;;;;15.67;8.70;;;;;;;;;;10554094;28;20273;-75
2020/12/08 19:35:04;;;;;;;16.27;8.97;;;;;;;;;;10563385;28;20195;-74
2020/12/08 19:40:07;;;;;;;14.70;8.30;;;;;;;;;;10564290;28;20674;-73
2020/12/08 19:45:10;;;;;;;16.97;7.70;;;;;;;;;;10557963;28;20223;-74
2020/12/08 19:50:13;;;;;;;14.27;7.90;;;;;;;;;;10551331;28;20770;-75
2020/12/08 19:55:15;;;;;;;15.40;7.37;;;;;;;;;;10570576;28;20651;-74
2020/12/08 20:00:17;;;;;;;14.53;8.30;;;;;;;;;;10564192;28;20297;-74
2020/12/08 20:05:19;;;;;;;14.93;7.93;;;;;;;;;;10567292;28;20215;-72
2020/12/08 20:10:21;;;;;;;15.37;8.17;;;;;;;;;;10565386;28;20281;-74
2020/12/08 20:15:24;;;;;;;16.73;9.53;;;;;;;;;;10557914;28;20195;-75
2020/12/08 20:20:26;;;;;;;17.40;9.57;;;;;;;;;;10565067;28;20222;-74
2020/12/08 20:25:27;;;;;;;18.60;11.13;;;;;;;;;;10553911;28;20211;-74
2020/12/08 20:30:30;;;;;;;18.53;10.60;;;;;;;;;;10565503;28;20239;-75
2020/12/08 20:35:32;;;;;;;22.17;11.03;;;;;;;;;;10559108;28;20192;-74
2020/12/08 20:40:33;;;;;;;20.83;11.63;;;;;;;;;;10571059;28;20211;-74
2020/12/08 20:45:36;;;;;;;20.37;11.47;;;;;;;;;;10567015;28;20223;-75
2020/12/08 20:50:38;;;;;;;22.53;12.53;;;;;;;;;;10567828;28;20219;-75
2020/12/08 20:55:41;;;;;;;26.17;12.47;;;;;;;;;;10578143;28;20207;-76
2020/12/08 21:00:43;;;;;;;21.70;12.37;;;;;;;;;;10560554;28;20262;-74
2020/12/08 21:05:45;;;;;;;23.13;12.27;;;;;;;;;;10566486;28;20219;-76
2020/12/08 21:10:47;;;;;;;20.77;11.27;;;;;;;;;;10579319;28;20680;-75
2020/12/08 21:15:50;;;;;;;21.13;11.40;;;;;;;;;;10572021;28;20200;-75
2020/12/08 21:21:01;;;;;;;20.47;11.33;;;;;;;;;;10553956;28;20224;-75
2020/12/08 21:26:02;;;;;;;21.57;11.77;;;;;;;;;;10560024;28;20219;-73
2020/12/08 21:31:05;;;;;;;20.70;10.33;;;;;;;;;;10566060;28;20346;-74
2020/12/08 21:36:07;;;;;;;23.10;11.20;;;;;;;;;;10551658;28;20244;-74
2020/12/08 21:41:10;;;;;;;23.43;11.77;;;;;;;;;;10557464;28;20223;-74
2020/12/08 21:46:15;;;;;;;23.43;12.07;;;;;;;;;;10561489;28;20211;-74
2020/12/08 21:51:18;;;;;;;26.50;13.20;;;;;;;;;;10571995;28;20302;-75
2020/12/08 21:56:20;;;;;;;24.30;12.43;;;;;;;;;;10565442;28;20207;-74
2020/12/08 22:01:23;;;;;;;25.13;12.10;;;;;;;;;;10570357;28;20221;-74
2020/12/08 22:06:24;;;;;;;21.27;10.63;;;;;;;;;;10567553;28;20287;-75
2020/12/08 22:11:26;;;;;;;20.07;9.43;;;;;;;;;;10566184;28;20223;-74
2020/12/08 22:16:28;;;;;;;28.20;13.73;;;;;;;;;;10560793;28;20535;-74
2020/12/08 22:21:30;;;;;;;21.40;10.73;;;;;;;;;;10560029;28;20215;-74
2020/12/08 22:26:31;;;;;;;14.00;6.57;;;;;;;;;;10558561;28;20199;-75
2020/12/08 22:31:34;;;;;;;22.57;10.30;;;;;;;;;;10567184;28;20230;-73
2020/12/08 22:36:36;;;;;;;25.30;12.83;;;;;;;;;;10564831;28;20504;-75
2020/12/08 22:41:38;;;;;;;27.60;13.33;;;;;;;;;;10567864;28;20262;-75
2020/12/08 22:46:41;;;;;;;28.60;13.87;;;;;;;;;;10546481;28;20199;-76
2020/12/08 22:51:43;;;;;;;25.43;12.73;;;;;;;;;;10557953;28;20211;-76
2020/12/08 22:56:45;;;;;;;29.20;14.23;;;;;;;;;;10555202;28;20233;-75
2020/12/08 23:01:49;;;;;;;30.43;14.80;;;;;;;;;;10549071;28;20219;-75
2020/12/08 23:06:51;;;;;;;13.47;5.87;;;;;;;;;;10554689;28;20207;-75
2020/12/08 23:11:54;;;;;;;27.53;13.13;;;;;;;;;;10568480;28;20253;-73
2020/12/08 23:16:56;;;;;;;33.50;14.20;;;;;;;;;;10556692;28;20272;-73
2020/12/08 23:22:02;;;;;;;28.53;14.70;;;;;;;;;;10562904;28;20755;-74
2020/12/08 23:27:03;;;;;;;22.87;11.33;;;;;;;;;;10561007;28;20291;-74
2020/12/08 23:32:06;;;;;;;30.50;13.90;;;;;;;;;;10566063;28;20217;-74
2020/12/08 23:37:08;;;;;;;30.43;14.00;;;;;;;;;;10564129;28;20214;-76
2020/12/08 23:42:09;;;;;;;18.13;8.00;;;;;;;;;;10569012;28;20231;-76
2020/12/08 23:47:12;;;;;;;22.87;9.10;;;;;;;;;;10566538;28;20283;-75
2020/12/08 23:52:14;;;;;;;29.23;12.73;;;;;;;;;;10569142;28;20613;-75
2020/12/08 23:57:15;;;;;;;30.53;14.20;;;;;;;;;;10563420;28;20339;-75
